map of BOJ home
BOJ - Airport
Location
City:  Burgas, Burgas, Bulgaria
Name:Burgas International Airport
Old (Alt.):Sarafovo
ICAO:LBBG
IATA:BOJ

Details
Type:Airport (Aerodrome, Airfield)
Use:Public/Civil, International (customs port of entry)
Latitude:4234'10"N (42.569583)
Longitude:2730'55"E (27.515236)
Datum:WGS 1984
Elevation:135 ft (41 m)
Variation:5.62E (WMM2015 magnetic declination)
0.10 annual change
Runways:1
Longest:10499 × 148 ft (3200 × 45 m), paved

Time
Time Zone:UTC+2 (DST+3)
Local Time:

Weather
METAR:LBBG 210900Z 11003KT 040V150 9999 FEW011 08/04 Q1019 R99/19//95 NOSIG
TAF:LBBG 210500Z 2106/2206 26010KT 1500 BR SCT005 BKN010
TEMPO 2106/2108 0600 FG OVC006
BECMG 2108/2110 03010KT 5000 BR SCT020
BECMG 2110/2112 8000 NSC
BECMG 2122/2124 BKN010

Related Locations
Nearby:
Farthest:CHT: 11231 mi / 18075 km
Waitangi [Tuuta], CIT, NZ

Find:

   beyond  
but within

Other Information
Maps:
NOTAMs:
Links:
Sources:

  
  • flag of Bulgaria
  

Sectional Chart

Flight Planning
at skyvector.com

Satellite Image

Google Maps Satellite view

 

Copyright © 2004-2019 Karl L. Swartz. All rights reserved.
The Great Circle Mapper name and logo are trademarks of the Great Circle Mapper.
All other trademarks mentioned herein belong to their respective owners.
Please see credits for attibutions and further copyright information.

  Follow gcmap on Facebook Follow gcmap on Twitter Follow gcmap on Google+ GCmap on LinkedIn

hCard Microformat

Geo Microformat